METAR stanice u blizini

 

LYNI - Nis, Yugoslavia
Distance from station: JZ 40km
Ažurirano: 24/09/2022 18:00
Vedro
Vedro
 Pravac vetra I
Vetar: I 9 km/h
Temperatura: 20°C
Tačka rose: 4°C
Vlažnost: 35%
Pritisak: 1018 hPa
Pregled: Vedro
Vidljivost: greater than 10 km
2022/09/24 16:00 LYNI 241600Z 10005KT CAVOK 20/04 Q1018 NOSIG
LYKV - Kraljevo, Yugoslavia
Distance from station: ZSZ 136km
Ažurirano: 24/09/2022 18:00
Vedro
Vedro
 Pravac vetra JJI
Vetar: JJI 9 km/h
Temperatura: 18°C
Tačka rose: 10°C
Vlažnost: 60%
Pritisak: 1017 hPa
Pregled: Vedro
Vidljivost: greater than 10 km
2022/09/24 16:00 LYKV 241600Z 15005KT CAVOK 18/10 Q1017 NOSIG
LBSF - Sofia (observato, Bulgaria
Distance from station: JI 138km
Ažurirano: 24/09/2022 18:00
Vedro
Vedro
 Pravac vetra varies
Vetar: varies 4 km/h
Temperatura: 18°C
Tačka rose: 4°C
Vlažnost: 40%
Pritisak: 1019 hPa
Pregled: Vedro
Vidljivost: greater than 10 km
2022/09/24 16:00 LBSF 241600Z VRB02KT CAVOK 18/04 Q1019 NOSIG
 
BKPR - Prishtina, Yugoslavia
Distance from station: JZ 147km
Ažurirano: 24/09/2022 18:00
Vedro
Vedro
 Pravac vetra ZJZ
Vetar: ZJZ 11 km/h
Temperatura: 19°C
Tačka rose: 1°C
Vlažnost: 30%
Pritisak: 1019 hPa
Pregled: Vedro
Vidljivost: greater than 10 km
2022/09/24 16:00 BKPR 241600Z 24006KT CAVOK 19/01 Q1019 NOSIG
LRCV - Craiova, Romania
Distance from station: SI 154km
Ažurirano: 24/09/2022 18:00
Vedro
Vedro
 Pravac vetra varies
Vetar: varies 6 km/h
Temperatura: 17°C
Tačka rose: 1°C
Vlažnost: 34%
Pritisak: 1018 hPa
Pregled: Vedro
Vidljivost: greater than 10 km
2022/09/24 16:00 LRCV 241600Z VRB03KT CAVOK 17/01 Q1018
LWSK - Skopje/Petrovac, Macedonia
Distance from station: JJZ 185km
Ažurirano: 24/09/2022 18:00
Vedro
Vedro
 Pravac vetra I
Vetar: I 6 km/h
Temperatura: 20°C
Tačka rose: 2°C
Vlažnost: 30%
Pritisak: 1019 hPa
Pregled: Vedro
Vidljivost: greater than 10 km
2022/09/24 16:00 LWSK 241600Z 08003KT CAVOK 20/02 Q1019 NOSIG
 
LYVR - Vrsac, Yugoslavia
Distance from station: SSZ 189km
Ažurirano: 24/09/2022 18:00
Vedro
Vedro
 Pravac vetra JJI
Vetar: JJI 7 km/h
Temperatura: 16°C
Tačka rose: 7°C
Vlažnost: 55%
Pritisak: 1018 hPa
Pregled: Vedro
Vidljivost: greater than 10 km
2022/09/24 16:00 LYVR 241600Z AUTO 15004KT CAVOK 16/07 Q1018
LYUZ - Uzice-Ponikve, Yugoslavia
Distance from station: Z 207km
Ažurirano: 04/11/2021 00:30
NOT Current

 Pravac vetra varies
Vetar: varies 9 km/h
Temperatura: 14°C
Tačka rose: 7°C
Vlažnost: 63%
Pritisak: 1010 hPa
Vidljivost: 10 km
2021/11/03 23:30 LYUZ 032330Z AUTO VRB05KT 9999 ////// 14/07 Q1010
LYBE - Belgrade/Surcin, Yugoslavia
Distance from station: SZ 209km
Ažurirano: 24/09/2022 18:00
Vedro
Vedro
 Pravac vetra I
Vetar: I 7 km/h
Temperatura: 18°C
Tačka rose: 6°C
Vlažnost: 46%
Pritisak: 1017 hPa
Pregled: Vedro
Vidljivost: greater than 10 km
2022/09/24 16:00 LYBE 241600Z 10004KT CAVOK 18/06 Q1017 NOSIG
 
LYBT - Batajnica, Yugoslavia
Distance from station: SZ 219km
Ažurirano: 24/09/2022 18:00
Vedro
Vedro
 Pravac vetra I
Vetar: I 6 km/h
Temperatura: 17°C
Tačka rose: 10°C
Vlažnost: 64%
Pritisak: 1017 hPa
Pregled: Vedro
Vidljivost: greater than 10 km
2022/09/24 16:00 LYBT 241600Z 09003KT 050V110 CAVOK 17/10 Q1017 NOSIG
LRTR - Timisoara/Giarma, Romania
Distance from station: SSZ 260km
Ažurirano: 24/09/2022 18:00
Vedro
Vedro
 Pravac vetra JI
Vetar: JI 7 km/h
Temperatura: 16°C
Tačka rose: 5°C
Vlažnost: 48%
Pritisak: 1017 hPa
Pregled: Vedro
Vidljivost: greater than 10 km
2022/09/24 16:00 LRTR 241600Z 14004KT CAVOK 16/05 Q1017
LBPD - Plovdiv, Bulgaria
Distance from station: JI 263km
Ažurirano: 24/09/2022 18:00
Vedro
Vedro
 Pravac vetra JJI
Vetar: JJI 15 km/h
Temperatura: 19°C
Tačka rose: 3°C
Vlažnost: 35%
Pritisak: 1018 hPa
Oblaci: Vedro
Vidljivost: 10 km
2022/09/24 16:00 LBPD 241600Z AUTO 16008KT 9999 NCD 19/03 Q1018 NOSIG
 
LYPG - Podgorica(Titogr, Yugoslavia
Distance from station: ZJZ 278km
Ažurirano: 24/09/2022 18:00
Vedro
Vedro
 Pravac vetra J
Vetar: J 2 km/h
Temperatura: 21°C
Tačka rose: 6°C
Vlažnost: 38%
Pritisak: 1020 hPa
Pregled: Vedro
Vidljivost: greater than 10 km
2022/09/24 16:00 LYPG 241600Z 18001KT CAVOK 21/06 Q1020 NOSIG
LBGO - Gorna Orechovist, Bulgaria
Distance from station: I 285km
Ažurirano: 24/09/2022 18:00
Vedro
Vedro
 Pravac vetra varies
Vetar: varies 4 km/h
Temperatura: 15°C
Tačka rose: 7°C
Vlažnost: 59%
Pritisak: 1019 hPa
Oblaci: Vedro
Vidljivost: 10 km
2022/09/24 16:00 LBGO 241600Z AUTO VRB02KT 9999 NCD 15/07 Q1019 NOSIG
LRSB - Sibiu/Turnisor, Romania
Distance from station: SSI 286km
Ažurirano: 24/09/2022 18:00
Vedro
Vedro
 Pravac vetra JJZ
Vetar: JJZ 6 km/h
Temperatura: 12°C
Tačka rose: 7°C
Vlažnost: 72%
Pritisak: 1019 hPa
Pregled: Vedro
Vidljivost: greater than 10 km
2022/09/24 16:00 LRSB 241600Z 21003KT CAVOK 12/07 Q1019 NOSIG
 
LWOH - Ohrid, Macedonia
Distance from station: JJZ 292km
Ažurirano: 24/09/2022 18:00
Few Clouds
Few Clouds
 Pravac vetra ZJZ
Vetar: ZJZ 7 km/h
Temperatura: 18°C
Tačka rose: -3°C
Vlažnost: 24%
Pritisak: 1020 hPa
Oblaci: Few Clouds
Vidljivost: 10 km
Cloud details: Few Clouds 1524 m
2022/09/24 16:00 LWOH 241600Z 24004KT 9999 FEW050 18/M03 Q1020
LQTZ - Tuzla, Yugoslavia
Distance from station: ZSZ 298km
Ažurirano: 24/09/2022 18:00
Vedro
Vedro
 Pravac vetra varies
Vetar: varies 2 km/h
Temperatura: 17°C
Tačka rose: 14°C
Vlažnost: 83%
Pritisak: 1016 hPa
Pregled: Vedro
Vidljivost: greater than 10 km
2022/09/24 16:00 LQTZ 241600Z VRB01KT CAVOK 17/14 Q1016
LRAR - Arad, Romania
Distance from station: SSZ 301km
Ažurirano: 24/09/2022 18:00
Vedro
Vedro
 Pravac vetra JJI
Vetar: JJI 7 km/h
Temperatura: 16°C
Tačka rose: 8°C
Vlažnost: 59%
Pritisak: 1017 hPa
Pregled: Vedro
Vidljivost: greater than 10 km
2022/09/24 16:00 LRAR 241600Z 16004KT CAVOK 16/08 Q1017
 
LYTV - Tivat, Yugoslavia
Distance from station: ZJZ 315km
Ažurirano: 24/09/2022 18:00
Few Clouds
Few Clouds
 Pravac vetra varies
Vetar: varies 2 km/h
Temperatura: 19°C
Tačka rose: 11°C
Vlažnost: 60%
Pritisak: 1020 hPa
Oblaci: Few Clouds
Vidljivost: 10 km
Cloud details: Few Clouds 1433 m
2022/09/24 16:00 LYTV 241600Z VRB01KT 9999 FEW047 19/11 Q1020 NOSIG
LATI - Tirana, Albania
Distance from station: JZ 316km
Ažurirano: 24/09/2022 18:20
Vedro
Vedro
 Pravac vetra SSZ
Vetar: SSZ 6 km/h
Temperatura: 20°C
Tačka rose: 9°C
Vlažnost: 49%
Pritisak: 1020 hPa
Pregled: Vedro
Vidljivost: greater than 10 km
2022/09/24 16:20 LATI 241620Z 33003KT CAVOK 20/09 Q1020 NOSIG
LQBK - Banja Luka, Yugoslavia
Distance from station: SZ 426km
Ažurirano: 24/09/2022 18:00
Vedro
Vedro
 Pravac vetra varies
Vetar: varies 4 km/h
Temperatura: 19°C
Tačka rose: 9°C
Vlažnost: 52%
Pritisak: 1016 hPa
Pregled: Vedro
Vidljivost: greater than 10 km
2022/09/24 16:00 LQBK 241600Z VRB02KT CAVOK 19/09 Q1016 NOSIG
 
LDOS - Osijek, Croatia
Distance from station: SSZ 360km
Ažurirano: 24/09/2022 18:00
Vedro
Vedro
 Pravac vetra JI
Vetar: JI 11 km/h
Temperatura: 18°C
Tačka rose: 11°C
Vlažnost: 64%
Pritisak: 1016 hPa
Pregled: Vedro
Vidljivost: greater than 10 km
2022/09/24 16:00 LDOS 241600Z 14006KT CAVOK 18/11 Q1016
LDDU - Dubrovnik-Cilipi, Croatia
Distance from station: JZ 352km
Ažurirano: 24/09/2022 18:00
Few Clouds
Few Clouds
 Pravac vetra JI
Vetar: JI 17 km/h
Temperatura: 19°C
Tačka rose: 10°C
Vlažnost: 56%
Pritisak: 1020 hPa
Oblaci: Few Clouds
Vidljivost: 10 km
Cloud details: Few Clouds 914 m
2022/09/24 16:00 LDDU 241600Z 13009KT 9999 FEW030 19/10 Q1020 NOSIG
LQMO - Mostar Airport, Bosnia-Herzegovina
Distance from station: Z 359km
Ažurirano: 24/09/2022 18:00
Vedro
Vedro
 Pravac vetra JJZ
Vetar: JJZ 11 km/h
Temperatura: 21°C
Tačka rose: 3°C
Vlažnost: 31%
Pritisak: 1018 hPa
Pregled: Vedro
Vidljivost: greater than 10 km
2022/09/24 16:00 LQMO 241600Z 20006KT 170V230 CAVOK 21/03 Q1018
 
LQSA - Sarajevo/Butmir, Yugoslavia
Distance from station: Z 311km
Ažurirano: 24/09/2022 18:00
Vedro
Vedro
 Pravac vetra S
Vetar: S 6 km/h
Temperatura: 18°C
Tačka rose: 3°C
Vlažnost: 37%
Pritisak: 1017 hPa
Pregled: Vedro
Vidljivost: greater than 10 km
2022/09/24 16:00 LQSA 241600Z 35003KT 320V050 CAVOK 18/03 Q1017 NOSIG
LDSP - Split/Kastel Sta, Croatia
Distance from station: Z 468km
Ažurirano: 24/09/2022 18:00
Vedro
Vedro
 Pravac vetra JI
Vetar: JI 13 km/h
Temperatura: 20°C
Tačka rose: 9°C
Vlažnost: 49%
Pritisak: 1018 hPa
Pregled: Vedro
Vidljivost: greater than 10 km
2022/09/24 16:00 LDSP 241600Z 13007KT 100V260 CAVOK 20/09 Q1018 NOSIG
LDZD - Zadar/Zemunik, Croatia
Distance from station: ZSZ 567km
Ažurirano: 24/09/2022 18:00
Few Clouds
Few Clouds
 Pravac vetra JJI
Vetar: JJI 17 km/h
Temperatura: 19°C
Tačka rose: 8°C
Vlažnost: 49%
Pritisak: 1017 hPa
Oblaci: Few Clouds
Vidljivost: 10 km
Cloud details: Few Clouds 2134 m
2022/09/24 16:00 LDZD 241600Z 15009KT 9999 FEW070 19/08 Q1017 NOSIG
 
LDZA - Zagreb/Pleso, Croatia
Distance from station: SZ 555km
Ažurirano: 24/09/2022 18:00
Vedro
Vedro
 Pravac vetra JJZ
Vetar: JJZ 9 km/h
Temperatura: 19°C
Tačka rose: 11°C
Vlažnost: 60%
Pritisak: 1015 hPa
Pregled: Vedro
Vidljivost: greater than 10 km
2022/09/24 16:00 LDZA 241600Z 21005KT 170V240 CAVOK 19/11 Q1015 NOSIG
LJCE - Cerklje, Slovenia
Distance from station: SZ 680km
Ažurirano: 24/09/2022 18:00
Vedro
Vedro
 Pravac vetra JJZ
Vetar: JJZ 6 km/h
Temperatura: 17°C
Tačka rose: 12°C
Vlažnost: 73%
Pritisak: 1015 hPa
Pregled: Vedro
Vidljivost: greater than 10 km
2022/09/24 16:00 LJCE 241600Z 20003KT CAVOK 17/12 Q1015 RMK BLU
LJMB - Maribor, Slovenia
Distance from station: SZ 616km
Ažurirano: 24/09/2022 18:00
Oblačno
Oblačno
 Pravac vetra JJZ
Vetar: JJZ 15 km/h
Temperatura: 17°C
Tačka rose: 10°C
Vlažnost: 64%
Pritisak: 1014 hPa
Oblaci: Oblačno
Vidljivost: 10 km
Cloud details: Few Clouds 1219 m
Delimično oblačno 3353 m
Oblačno 5182 m
2022/09/24 16:00 LJMB 241600Z 21008KT 190V250 9999 FEW040 SCT110 OVC170 17/10 Q1014
 
LJLJ - Ljubljana/Brnik, Slovenia
Distance from station: SZ 671km
Ažurirano: 24/09/2022 18:00
Pretežno oblačno
Pretežno oblačno
 Pravac vetra varies
Vetar: varies 4 km/h
Temperatura: 15°C
Tačka rose: 11°C
Vlažnost: 77%
Pritisak: 1015 hPa
Oblaci: Pretežno oblačno
Vidljivost: 10 km
Cloud details: Few Clouds 1372 m
Delimično oblačno 1676 m
Pretežno oblačno 3353 m
2022/09/24 16:00 LJLJ 241600Z VRB02KT 9999 FEW045 SCT055 BKN110 15/11 Q1015 NOSIG
LDRI - Rijeka, Croatia
Distance from station: SZ 650km
Ažurirano: 24/09/2022 18:00
Pretežno oblačno
Pretežno oblačno
 Pravac vetra J
Vetar: J 20 km/h
Temperatura: 19°C
Tačka rose: 11°C
Vlažnost: 60%
Pritisak: 1016 hPa
Oblaci: Pretežno oblačno
Vidljivost: 10 km
Cloud details: Pretežno oblačno 1219 m
2022/09/24 16:00 LDRI 241600Z 17011KT 9999 BKN040 19/11 Q1016
LDPL - Pula, Croatia
Distance from station: ZSZ 686km
Ažurirano: 24/09/2022 18:00
Slaba kiša, Pretežno oblačno
Slaba kiša, Pretežno oblačno
 Pravac vetra varies
Vetar: varies 9 km/h
Temperatura: 18°C
Tačka rose: 13°C
Vlažnost: 73%
Pritisak: 1016 hPa
Pregled: Slaba kiša
Oblaci: Pretežno oblačno
Vidljivost: 10 km
Cloud details: Delimično oblačno 701 m
Pretežno oblačno 1524 m
2022/09/24 16:00 LDPL 241600Z VRB05KT 9999 -RA SCT023 BKN050 18/13 Q1016 NOSIG
 
LJPZ - Portorož, Slovenia
Distance from station: ZSZ 720km
Ažurirano: 24/09/2022 18:00
Oblačno
Oblačno
 Pravac vetra JJI
Vetar: JJI 13 km/h
Temperatura: 20°C
Tačka rose: 13°C
Vlažnost: 64%
Pritisak: 1015 hPa
Oblaci: Oblačno
Vidljivost: 10 km
Cloud details: Delimično oblačno 1524 m
Oblačno 3048 m
2022/09/24 16:00 LJPZ 241600Z 16007KT 110V210 9999 SCT050 OVC100 20/13 Q1015